createdAt,value
2018-09-13T14:58:32.837Z,2.77
2018-09-13T15:01:02.049Z,2.33
2018-09-13T15:03:31.328Z,3.07
2018-09-13T15:06:00.823Z,5.20
2018-09-13T15:08:30.065Z,2.70
2018-09-13T15:10:59.352Z,2.20
2018-09-13T15:13:28.603Z,2.43
2018-09-13T15:15:58.164Z,2.27
2018-09-13T15:18:27.110Z,2.80
2018-09-13T15:20:56.804Z,2.53
2018-09-13T15:23:26.042Z,3.27
2018-09-13T15:25:55.359Z,3.17
2018-09-13T15:28:24.559Z,3.00
2018-09-13T15:30:53.937Z,1.90
2018-09-13T15:33:23.551Z,2.70
2018-09-13T15:35:52.763Z,2.50
2018-09-13T15:38:21.948Z,2.70
2018-09-13T15:40:51.272Z,2.50
2018-09-13T15:43:20.545Z,2.40
2018-09-13T15:47:51.208Z,2.57
2018-09-13T15:50:20.595Z,2.87
2018-09-13T15:52:49.713Z,2.50
2018-09-13T15:55:19.004Z,2.63
2018-09-13T15:57:48.187Z,2.87
2018-09-13T16:00:17.296Z,3.00
2018-09-13T16:02:46.400Z,2.67
2018-09-13T16:05:15.792Z,3.00
2018-09-13T16:07:45.139Z,3.20
2018-09-13T16:10:14.297Z,3.20
2018-09-13T16:12:43.394Z,2.90
2018-09-13T16:15:13.309Z,2.47
2018-09-13T16:17:42.673Z,2.40
2018-09-13T16:20:18.495Z,2.30
2018-09-13T16:22:47.734Z,2.73
2018-09-13T16:25:16.960Z,2.67
2018-09-13T16:27:46.223Z,3.20
2018-09-13T16:30:15.452Z,3.00
2018-09-13T16:32:44.614Z,2.93
2018-09-13T16:35:13.901Z,3.30
2018-09-13T16:37:48.308Z,3.67
2018-09-13T16:40:22.774Z,3.17
2018-09-13T16:42:57.292Z,2.60
2018-09-13T16:45:30.320Z,3.00
2018-09-13T16:48:00.989Z,2.97
2018-09-13T16:50:30.232Z,3.40
2018-09-13T16:52:59.422Z,3.27
2018-09-13T16:55:28.744Z,2.90
2018-09-13T16:57:58.036Z,3.37
2018-09-13T17:00:27.727Z,2.67
2018-09-13T17:02:56.896Z,2.87
2018-09-13T17:05:26.242Z,3.00
2018-09-13T17:07:55.431Z,2.90
2018-09-13T17:10:24.757Z,3.40
2018-09-13T17:12:53.900Z,3.10
2018-09-13T17:15:23.229Z,3.40
2018-09-13T17:17:52.396Z,4.60
2018-09-13T17:20:21.661Z,3.63
2018-09-13T17:22:50.872Z,3.63
2018-09-13T17:25:20.235Z,3.10
2018-09-13T17:27:49.415Z,2.63
2018-09-13T17:30:18.835Z,3.17
2018-09-13T17:32:48.098Z,3.50
2018-09-13T17:35:17.549Z,2.93
2018-09-13T17:37:46.816Z,2.77
2018-09-13T17:40:15.939Z,3.60
2018-09-13T17:42:45.325Z,3.97
2018-09-13T17:45:14.641Z,3.60
2018-09-13T17:47:43.660Z,3.67
2018-09-13T17:50:12.966Z,3.07
2018-09-13T17:52:42.419Z,3.50
2018-09-13T17:55:11.640Z,3.80
2018-09-13T17:57:40.924Z,3.97
2018-09-13T18:00:11.277Z,3.67
2018-09-13T18:02:40.461Z,2.70
2018-09-13T18:05:09.921Z,3.50
2018-09-13T18:07:39.036Z,3.00
2018-09-13T18:10:08.481Z,4.13
2018-09-13T18:12:37.881Z,3.70
2018-09-13T18:15:14.626Z,3.50
2018-09-13T18:17:44.144Z,3.90
2018-09-13T18:20:14.173Z,4.27
2018-09-13T18:22:43.752Z,3.93
2018-09-13T18:25:12.892Z,3.80
2018-09-13T18:27:42.356Z,3.90
2018-09-13T18:30:11.701Z,3.83
2018-09-13T18:32:41.128Z,4.07
2018-09-13T18:35:10.376Z,3.87
2018-09-13T18:37:39.740Z,3.70
2018-09-13T18:40:09.685Z,4.40
2018-09-13T18:42:39.060Z,4.60
2018-09-13T18:45:08.306Z,4.27
2018-09-13T18:47:37.548Z,4.30
2018-09-13T18:50:06.903Z,4.50
2018-09-13T18:52:36.165Z,3.80
2018-09-13T18:55:05.604Z,4.07
2018-09-13T18:57:34.953Z,4.30
2018-09-13T19:00:04.522Z,5.07
2018-09-13T19:02:33.667Z,4.90
2018-09-13T19:05:02.895Z,4.80
2018-09-13T19:07:32.083Z,6.27
2018-09-13T19:10:01.234Z,4.87
2018-09-13T19:12:30.507Z,5.47
2018-09-13T19:14:59.811Z,4.33
2018-09-13T19:17:29.195Z,4.60
2018-09-13T19:19:58.364Z,4.33
2018-09-13T19:22:31.348Z,5.43
2018-09-13T19:25:00.548Z,5.13
2018-09-13T19:27:29.879Z,5.40
2018-09-13T19:30:00.265Z,5.53
2018-09-13T19:32:29.768Z,5.20
2018-09-13T19:34:58.984Z,4.60
2018-09-13T19:37:28.222Z,5.40
2018-09-13T19:39:57.471Z,5.70
2018-09-13T19:42:26.693Z,4.60
2018-09-13T19:44:55.964Z,5.80
2018-09-13T19:47:25.284Z,5.40
2018-09-13T19:49:54.468Z,6.10
2018-09-13T19:52:23.484Z,5.90
2018-09-13T19:54:52.771Z,6.17
2018-09-13T19:57:21.904Z,5.70
2018-09-13T19:59:50.952Z,8.10
2018-09-13T20:02:20.191Z,6.90
2018-09-13T20:04:49.856Z,7.37
2018-09-13T20:07:19.028Z,7.20
2018-09-13T20:09:48.360Z,7.80
2018-09-13T20:12:17.854Z,7.80
2018-09-13T20:14:46.980Z,7.40
2018-09-13T20:17:16.190Z,8.37
2018-09-13T20:19:45.576Z,7.50
2018-09-13T20:22:14.887Z,8.10
2018-09-13T20:24:44.116Z,9.50
2018-09-13T20:27:13.759Z,8.10
2018-09-13T20:29:43.426Z,7.70
2018-09-13T20:32:12.675Z,7.90
2018-09-13T20:34:41.892Z,7.67
2018-09-13T20:37:11.104Z,6.30
2018-09-13T20:39:40.343Z,6.47
2018-09-13T20:42:09.481Z,5.57
2018-09-13T20:44:38.673Z,5.97
2018-09-13T20:47:08.199Z,5.73
2018-09-13T20:49:37.160Z,5.43
2018-09-13T20:52:06.278Z,5.23
2018-09-13T20:54:35.509Z,6.10
2018-09-13T20:57:04.988Z,5.23
2018-09-13T20:59:39.280Z,5.50
2018-09-13T21:02:09.058Z,5.67
2018-09-13T21:04:38.202Z,5.70
2018-09-13T21:07:07.343Z,5.50
2018-09-13T21:09:36.812Z,5.80
2018-09-13T21:12:05.931Z,4.73
2018-09-13T21:14:35.297Z,4.90
2018-09-13T21:17:04.968Z,5.70
2018-09-13T21:19:34.125Z,5.57
2018-09-13T21:22:03.217Z,6.00
2018-09-13T21:24:32.606Z,5.77
2018-09-13T21:27:08.542Z,5.10
2018-09-13T21:29:39.744Z,4.97
2018-09-13T21:32:09.133Z,3.73
2018-09-13T21:34:38.488Z,4.07
2018-09-13T21:37:07.820Z,4.13
2018-09-13T21:39:37.016Z,4.40
2018-09-13T21:42:06.424Z,4.10
2018-09-13T21:44:35.592Z,3.43
2018-09-13T21:47:05.031Z,3.33
2018-09-13T21:49:34.799Z,3.37
2018-09-13T21:52:04.074Z,3.77
2018-09-13T21:54:34.068Z,3.90
2018-09-13T21:57:03.623Z,4.07
2018-09-13T21:59:32.917Z,4.30
2018-09-13T22:02:02.156Z,3.60
2018-09-13T22:04:31.341Z,3.50
2018-09-13T22:07:00.610Z,3.90
2018-09-13T22:09:29.917Z,3.40
2018-09-13T22:11:59.143Z,3.60
2018-09-13T22:14:28.460Z,3.50
2018-09-13T22:16:57.570Z,3.80
2018-09-13T22:19:26.905Z,3.40
2018-09-13T22:21:56.140Z,3.97
2018-09-13T22:24:25.100Z,3.70
2018-09-13T22:26:54.368Z,3.60
2018-09-13T22:29:23.716Z,4.13
2018-09-13T22:31:52.948Z,4.80
2018-09-13T22:34:22.316Z,4.53
2018-09-13T22:36:51.659Z,5.10
2018-09-13T22:39:20.841Z,5.43
2018-09-13T22:41:50.439Z,5.10
2018-09-13T22:44:19.636Z,5.63
2018-09-13T22:46:48.836Z,4.80
2018-09-13T22:49:18.028Z,5.40
2018-09-13T22:51:47.238Z,5.53
2018-09-13T22:54:16.417Z,4.90
2018-09-13T22:56:45.840Z,4.53
2018-09-13T22:59:15.103Z,5.70
2018-09-13T23:01:44.644Z,5.80
2018-09-13T23:04:13.925Z,4.77
2018-09-13T23:06:43.220Z,4.97
2018-09-13T23:09:13.056Z,5.37
2018-09-13T23:11:42.372Z,5.03
2018-09-13T23:14:11.736Z,5.70
2018-09-13T23:16:41.060Z,5.07
2018-09-13T23:19:10.172Z,5.10
2018-09-13T23:21:39.577Z,5.50
2018-09-13T23:24:08.845Z,6.43
2018-09-13T23:26:38.347Z,5.70
2018-09-13T23:29:07.948Z,6.20
2018-09-13T23:31:38.121Z,6.47
2018-09-13T23:34:07.452Z,6.53
2018-09-13T23:36:36.575Z,7.40
2018-09-13T23:39:08.684Z,7.00
2018-09-13T23:41:38.359Z,7.33
2018-09-13T23:44:07.521Z,6.93
2018-09-13T23:46:37.209Z,8.63
2018-09-13T23:49:06.539Z,7.70
2018-09-13T23:51:35.761Z,7.73
2018-09-13T23:54:05.127Z,7.90
2018-09-13T23:56:34.468Z,8.27
2018-09-13T23:59:03.732Z,7.60
